Terminal Aerodrome Forecast
Issued by NWS Sterling, VA

Current Version | Previous Version | Text Only | Print | Product List | Glossary Off
Versions: 1 2 3 4 5 6 7 8 9 10 11 12 13 14 15 16 17 18 19 20

847
FTUS41 KLWX 161720
TAFMRB
TAF
KMRB 161720Z 1618/1718 06004KT P6SM BKN040
     FM170000 VRB03KT P6SM SCT040
     FM170600 00000KT 5SM BR SCT050
     FM170800 00000KT 1/2SM FG SCT002 SCT050
     FM171300 00000KT 6SM BR SCT050
     FM171400 VRB03KT P6SM BKN050=

USA.gov is the U.S. government's official web portal to all federal, state and local government web resources and services.